sensor_id;sensor_type;location;lat;lon;timestamp;P1;durP1;ratioP1;P2;durP2;ratioP2
57551;SDS011;43379;48.160;14.036;2023-03-13T00:00:51;24.60;;;22.20;;
57551;SDS011;43379;48.160;14.036;2023-03-13T00:03:18;24.37;;;21.87;;
57551;SDS011;43379;48.160;14.036;2023-03-13T00:05:44;22.30;;;20.30;;
57551;SDS011;43379;48.160;14.036;2023-03-13T00:08:09;23.67;;;21.47;;
57551;SDS011;43379;48.160;14.036;2023-03-13T00:10:36;23.40;;;20.30;;
57551;SDS011;43379;48.160;14.036;2023-03-13T00:13:02;23.53;;;21.13;;
57551;SDS011;43379;48.160;14.036;2023-03-13T00:15:28;21.20;;;19.30;;
57551;SDS011;43379;48.160;14.036;2023-03-13T00:17:54;21.77;;;19.47;;
57551;SDS011;43379;48.160;14.036;2023-03-13T00:20:19;21.13;;;19.13;;
57551;SDS011;43379;48.160;14.036;2023-03-13T00:22:45;20.90;;;18.80;;
57551;SDS011;43379;48.160;14.036;2023-03-13T00:25:11;21.07;;;19.07;;
57551;SDS011;43379;48.160;14.036;2023-03-13T00:27:36;19.47;;;17.43;;
57551;SDS011;43379;48.160;14.036;2023-03-13T00:30:02;21.20;;;19.30;;
57551;SDS011;43379;48.160;14.036;2023-03-13T00:32:28;21.47;;;19.17;;
57551;SDS011;43379;48.160;14.036;2023-03-13T00:34:54;19.80;;;17.90;;
57551;SDS011;43379;48.160;14.036;2023-03-13T00:37:19;21.23;;;19.33;;
57551;SDS011;43379;48.160;14.036;2023-03-13T00:39:45;22.00;;;19.97;;
57551;SDS011;43379;48.160;14.036;2023-03-13T00:42:10;22.93;;;20.63;;
57551;SDS011;43379;48.160;14.036;2023-03-13T00:44:36;21.30;;;19.17;;
57551;SDS011;43379;48.160;14.036;2023-03-13T00:47:02;20.80;;;18.97;;
57551;SDS011;43379;48.160;14.036;2023-03-13T00:49:29;23.00;;;20.60;;
57551;SDS011;43379;48.160;14.036;2023-03-13T00:51:55;21.20;;;19.10;;
57551;SDS011;43379;48.160;14.036;2023-03-13T00:54:21;21.93;;;19.80;;
57551;SDS011;43379;48.160;14.036;2023-03-13T00:56:46;22.10;;;20.00;;
57551;SDS011;43379;48.160;14.036;2023-03-13T00:59:12;22.53;;;20.53;;
57551;SDS011;43379;48.160;14.036;2023-03-13T01:01:39;21.47;;;19.53;;
57551;SDS011;43379;48.160;14.036;2023-03-13T01:04:06;22.30;;;20.20;;
57551;SDS011;43379;48.160;14.036;2023-03-13T01:06:36;21.47;;;19.43;;
57551;SDS011;43379;48.160;14.036;2023-03-13T01:09:05;23.20;;;20.60;;
57551;SDS011;43379;48.160;14.036;2023-03-13T01:11:32;21.67;;;19.77;;
57551;SDS011;43379;48.160;14.036;2023-03-13T01:14:01;22.10;;;20.00;;
57551;SDS011;43379;48.160;14.036;2023-03-13T01:16:29;20.93;;;19.07;;
57551;SDS011;43379;48.160;14.036;2023-03-13T01:18:58;22.40;;;20.40;;
57551;SDS011;43379;48.160;14.036;2023-03-13T01:21:26;22.87;;;20.57;;
57551;SDS011;43379;48.160;14.036;2023-03-13T01:23:52;22.87;;;20.83;;
57551;SDS011;43379;48.160;14.036;2023-03-13T01:26:18;22.37;;;20.37;;
57551;SDS011;43379;48.160;14.036;2023-03-13T01:28:44;22.13;;;20.00;;
57551;SDS011;43379;48.160;14.036;2023-03-13T01:31:11;22.47;;;20.47;;
57551;SDS011;43379;48.160;14.036;2023-03-13T01:33:38;21.80;;;19.60;;
57551;SDS011;43379;48.160;14.036;2023-03-13T01:36:03;22.90;;;20.80;;
57551;SDS011;43379;48.160;14.036;2023-03-13T01:38:29;20.60;;;18.70;;
57551;SDS011;43379;48.160;14.036;2023-03-13T01:40:55;21.37;;;19.47;;
57551;SDS011;43379;48.160;14.036;2023-03-13T01:43:22;21.00;;;19.10;;
57551;SDS011;43379;48.160;14.036;2023-03-13T01:51:41;22.37;;;20.10;;
57551;SDS011;43379;48.160;14.036;2023-03-13T01:54:27;22.83;;;20.70;;
57551;SDS011;43379;48.160;14.036;2023-03-13T01:59:41;21.03;;;18.93;;
57551;SDS011;43379;48.160;14.036;2023-03-13T02:02:10;22.50;;;20.30;;
57551;SDS011;43379;48.160;14.036;2023-03-13T02:04:38;21.43;;;19.43;;
57551;SDS011;43379;48.160;14.036;2023-03-13T02:07:10;22.33;;;20.13;;
57551;SDS011;43379;48.160;14.036;2023-03-13T02:09:39;21.33;;;19.27;;
57551;SDS011;43379;48.160;14.036;2023-03-13T02:12:08;22.47;;;20.50;;
57551;SDS011;43379;48.160;14.036;2023-03-13T02:14:37;21.80;;;19.90;;
57551;SDS011;43379;48.160;14.036;2023-03-13T02:17:05;23.10;;;20.90;;
57551;SDS011;43379;48.160;14.036;2023-03-13T02:27:06;22.90;;;20.70;;
57551;SDS011;43379;48.160;14.036;2023-03-13T02:29:32;22.30;;;20.20;;
57551;SDS011;43379;48.160;14.036;2023-03-13T02:31:58;24.60;;;22.17;;
57551;SDS011;43379;48.160;14.036;2023-03-13T02:34:25;25.07;;;22.67;;
57551;SDS011;43379;48.160;14.036;2023-03-13T02:36:54;26.20;;;22.00;;
57551;SDS011;43379;48.160;14.036;2023-03-13T02:39:22;26.10;;;23.43;;
57551;SDS011;43379;48.160;14.036;2023-03-13T02:41:49;25.80;;;23.13;;
57551;SDS011;43379;48.160;14.036;2023-03-13T02:44:16;24.20;;;21.77;;
57551;SDS011;43379;48.160;14.036;2023-03-13T02:46:46;25.23;;;22.80;;
57551;SDS011;43379;48.160;14.036;2023-03-13T02:49:27;23.63;;;21.10;;
57551;SDS011;43379;48.160;14.036;2023-03-13T02:51:55;24.50;;;22.20;;
57551;SDS011;43379;48.160;14.036;2023-03-13T02:54:34;25.90;;;23.20;;
57551;SDS011;43379;48.160;14.036;2023-03-13T02:57:03;25.97;;;23.40;;
57551;SDS011;43379;48.160;14.036;2023-03-13T02:59:29;25.60;;;23.00;;
57551;SDS011;43379;48.160;14.036;2023-03-13T03:01:55;24.60;;;22.23;;
57551;SDS011;43379;48.160;14.036;2023-03-13T03:04:21;24.03;;;21.53;;
57551;SDS011;43379;48.160;14.036;2023-03-13T03:06:49;27.57;;;21.17;;
57551;SDS011;43379;48.160;14.036;2023-03-13T03:09:16;23.33;;;21.17;;
57551;SDS011;43379;48.160;14.036;2023-03-13T03:11:43;25.07;;;22.57;;
57551;SDS011;43379;48.160;14.036;2023-03-13T03:14:09;25.67;;;22.80;;
57551;SDS011;43379;48.160;14.036;2023-03-13T03:16:35;24.37;;;21.77;;
57551;SDS011;43379;48.160;14.036;2023-03-13T03:19:01;27.67;;;22.00;;
57551;SDS011;43379;48.160;14.036;2023-03-13T03:21:27;23.33;;;20.70;;
57551;SDS011;43379;48.160;14.036;2023-03-13T03:23:53;22.10;;;19.97;;
57551;SDS011;43379;48.160;14.036;2023-03-13T03:26:18;25.27;;;22.77;;
57551;SDS011;43379;48.160;14.036;2023-03-13T03:28:44;24.90;;;21.53;;
57551;SDS011;43379;48.160;14.036;2023-03-13T03:31:11;24.10;;;21.60;;
57551;SDS011;43379;48.160;14.036;2023-03-13T03:33:39;23.70;;;21.37;;
57551;SDS011;43379;48.160;14.036;2023-03-13T03:36:06;24.23;;;21.70;;
57551;SDS011;43379;48.160;14.036;2023-03-13T03:38:35;23.90;;;21.33;;
57551;SDS011;43379;48.160;14.036;2023-03-13T03:41:01;25.03;;;21.13;;
57551;SDS011;43379;48.160;14.036;2023-03-13T03:43:27;22.93;;;20.63;;
57551;SDS011;43379;48.160;14.036;2023-03-13T03:45:52;25.03;;;21.43;;
57551;SDS011;43379;48.160;14.036;2023-03-13T03:48:18;23.13;;;20.83;;
57551;SDS011;43379;48.160;14.036;2023-03-13T03:50:44;29.00;;;21.90;;
57551;SDS011;43379;48.160;14.036;2023-03-13T03:53:09;27.83;;;21.37;;
57551;SDS011;43379;48.160;14.036;2023-03-13T03:55:35;27.90;;;21.60;;
57551;SDS011;43379;48.160;14.036;2023-03-13T03:58:01;22.50;;;20.30;;
57551;SDS011;43379;48.160;14.036;2023-03-13T04:00:26;23.40;;;21.00;;
57551;SDS011;43379;48.160;14.036;2023-03-13T04:02:52;23.83;;;21.47;;
57551;SDS011;43379;48.160;14.036;2023-03-13T04:05:20;24.03;;;21.63;;
57551;SDS011;43379;48.160;14.036;2023-03-13T04:07:46;25.40;;;22.90;;
57551;SDS011;43379;48.160;14.036;2023-03-13T04:10:12;24.00;;;21.73;;
57551;SDS011;43379;48.160;14.036;2023-03-13T04:12:38;26.87;;;23.97;;
57551;SDS011;43379;48.160;14.036;2023-03-13T04:15:04;34.63;;;22.17;;
57551;SDS011;43379;48.160;14.036;2023-03-13T04:17:30;51.97;;;22.73;;
57551;SDS011;43379;48.160;14.036;2023-03-13T04:19:55;25.43;;;22.70;;
57551;SDS011;43379;48.160;14.036;2023-03-13T04:22:21;23.43;;;21.00;;
57551;SDS011;43379;48.160;14.036;2023-03-13T04:24:47;23.20;;;20.87;;
57551;SDS011;43379;48.160;14.036;2023-03-13T04:27:12;22.37;;;19.93;;
57551;SDS011;43379;48.160;14.036;2023-03-13T04:29:38;22.77;;;20.73;;
57551;SDS011;43379;48.160;14.036;2023-03-13T04:32:04;21.77;;;19.57;;
57551;SDS011;43379;48.160;14.036;2023-03-13T04:34:30;20.20;;;18.40;;
57551;SDS011;43379;48.160;14.036;2023-03-13T04:36:55;20.00;;;18.20;;
57551;SDS011;43379;48.160;14.036;2023-03-13T04:39:21;22.37;;;20.40;;
57551;SDS011;43379;48.160;14.036;2023-03-13T04:41:50;22.30;;;19.17;;
57551;SDS011;43379;48.160;14.036;2023-03-13T04:44:16;21.07;;;18.97;;
57551;SDS011;43379;48.160;14.036;2023-03-13T04:46:42;20.93;;;18.97;;
57551;SDS011;43379;48.160;14.036;2023-03-13T04:49:08;20.47;;;18.67;;
57551;SDS011;43379;48.160;14.036;2023-03-13T04:51:33;20.30;;;18.40;;
57551;SDS011;43379;48.160;14.036;2023-03-13T04:53:59;20.67;;;18.67;;
57551;SDS011;43379;48.160;14.036;2023-03-13T04:56:25;21.97;;;19.80;;
57551;SDS011;43379;48.160;14.036;2023-03-13T04:58:52;21.13;;;19.07;;
57551;SDS011;43379;48.160;14.036;2023-03-13T05:01:17;20.87;;;18.80;;
57551;SDS011;43379;48.160;14.036;2023-03-13T05:03:43;21.60;;;19.60;;
57551;SDS011;43379;48.160;14.036;2023-03-13T05:06:09;21.10;;;19.07;;
57551;SDS011;43379;48.160;14.036;2023-03-13T05:08:36;21.23;;;19.13;;
57551;SDS011;43379;48.160;14.036;2023-03-13T05:11:02;21.13;;;19.03;;
57551;SDS011;43379;48.160;14.036;2023-03-13T05:13:28;22.53;;;20.63;;
57551;SDS011;43379;48.160;14.036;2023-03-13T05:15:53;24.97;;;22.67;;
57551;SDS011;43379;48.160;14.036;2023-03-13T05:18:19;23.50;;;21.20;;
57551;SDS011;43379;48.160;14.036;2023-03-13T05:20:45;23.07;;;21.00;;
57551;SDS011;43379;48.160;14.036;2023-03-13T05:23:10;22.13;;;20.13;;
57551;SDS011;43379;48.160;14.036;2023-03-13T05:25:36;20.53;;;18.40;;
57551;SDS011;43379;48.160;14.036;2023-03-13T05:28:02;22.23;;;20.27;;
57551;SDS011;43379;48.160;14.036;2023-03-13T05:30:28;23.33;;;20.93;;
57551;SDS011;43379;48.160;14.036;2023-03-13T05:32:53;21.83;;;19.77;;
57551;SDS011;43379;48.160;14.036;2023-03-13T05:35:19;22.20;;;20.03;;
57551;SDS011;43379;48.160;14.036;2023-03-13T05:37:45;20.33;;;18.53;;
57551;SDS011;43379;48.160;14.036;2023-03-13T05:40:11;20.30;;;18.57;;
57551;SDS011;43379;48.160;14.036;2023-03-13T05:42:37;23.27;;;20.83;;
57551;SDS011;43379;48.160;14.036;2023-03-13T05:45:03;19.80;;;17.80;;
57551;SDS011;43379;48.160;14.036;2023-03-13T05:47:30;21.10;;;19.20;;
57551;SDS011;43379;48.160;14.036;2023-03-13T05:49:55;21.70;;;19.67;;
57551;SDS011;43379;48.160;14.036;2023-03-13T05:52:21;24.43;;;22.03;;
57551;SDS011;43379;48.160;14.036;2023-03-13T05:54:47;24.10;;;21.87;;
57551;SDS011;43379;48.160;14.036;2023-03-13T05:57:12;23.83;;;21.43;;
57551;SDS011;43379;48.160;14.036;2023-03-13T05:59:38;26.80;;;23.53;;
57551;SDS011;43379;48.160;14.036;2023-03-13T06:02:04;26.23;;;23.50;;
57551;SDS011;43379;48.160;14.036;2023-03-13T06:04:29;23.60;;;21.20;;
57551;SDS011;43379;48.160;14.036;2023-03-13T06:06:55;23.20;;;20.93;;
57551;SDS011;43379;48.160;14.036;2023-03-13T06:09:21;23.70;;;21.50;;
57551;SDS011;43379;48.160;14.036;2023-03-13T06:11:47;23.20;;;21.10;;
57551;SDS011;43379;48.160;14.036;2023-03-13T06:14:12;24.80;;;22.37;;
57551;SDS011;43379;48.160;14.036;2023-03-13T06:16:38;25.10;;;22.90;;
57551;SDS011;43379;48.160;14.036;2023-03-13T06:19:03;25.30;;;22.87;;
57551;SDS011;43379;48.160;14.036;2023-03-13T06:21:29;22.30;;;20.27;;
57551;SDS011;43379;48.160;14.036;2023-03-13T06:23:55;22.93;;;20.87;;
57551;SDS011;43379;48.160;14.036;2023-03-13T06:26:21;24.67;;;22.40;;
57551;SDS011;43379;48.160;14.036;2023-03-13T06:28:48;23.67;;;21.60;;
57551;SDS011;43379;48.160;14.036;2023-03-13T06:31:14;25.33;;;22.80;;
57551;SDS011;43379;48.160;14.036;2023-03-13T06:33:40;22.30;;;20.40;;
57551;SDS011;43379;48.160;14.036;2023-03-13T06:36:06;24.87;;;22.50;;
57551;SDS011;43379;48.160;14.036;2023-03-13T06:38:32;23.57;;;21.27;;
57551;SDS011;43379;48.160;14.036;2023-03-13T06:40:58;23.67;;;21.40;;
57551;SDS011;43379;48.160;14.036;2023-03-13T06:43:24;24.47;;;22.23;;
57551;SDS011;43379;48.160;14.036;2023-03-13T06:45:49;21.20;;;19.20;;
57551;SDS011;43379;48.160;14.036;2023-03-13T06:48:15;20.67;;;18.67;;
57551;SDS011;43379;48.160;14.036;2023-03-13T06:50:41;22.70;;;20.50;;
57551;SDS011;43379;48.160;14.036;2023-03-13T06:53:08;20.10;;;18.23;;
57551;SDS011;43379;48.160;14.036;2023-03-13T06:55:42;20.57;;;18.57;;
57551;SDS011;43379;48.160;14.036;2023-03-13T06:58:08;20.60;;;18.60;;
57551;SDS011;43379;48.160;14.036;2023-03-13T07:00:34;17.90;;;16.30;;
57551;SDS011;43379;48.160;14.036;2023-03-13T07:03:00;18.73;;;17.10;;
57551;SDS011;43379;48.160;14.036;2023-03-13T07:05:26;19.27;;;17.40;;
57551;SDS011;43379;48.160;14.036;2023-03-13T07:07:51;18.87;;;16.97;;
57551;SDS011;43379;48.160;14.036;2023-03-13T07:10:17;17.77;;;16.27;;
57551;SDS011;43379;48.160;14.036;2023-03-13T07:12:43;18.53;;;16.70;;
57551;SDS011;43379;48.160;14.036;2023-03-13T07:15:09;18.17;;;16.50;;
57551;SDS011;43379;48.160;14.036;2023-03-13T07:17:35;19.57;;;17.67;;
57551;SDS011;43379;48.160;14.036;2023-03-13T07:20:01;22.30;;;18.80;;
57551;SDS011;43379;48.160;14.036;2023-03-13T07:22:29;20.93;;;18.60;;
57551;SDS011;43379;48.160;14.036;2023-03-13T07:24:55;20.83;;;18.93;;
57551;SDS011;43379;48.160;14.036;2023-03-13T07:27:20;22.47;;;20.20;;
57551;SDS011;43379;48.160;14.036;2023-03-13T07:29:47;21.57;;;19.47;;
57551;SDS011;43379;48.160;14.036;2023-03-13T07:32:12;20.03;;;17.97;;
57551;SDS011;43379;48.160;14.036;2023-03-13T07:34:38;23.07;;;20.77;;
57551;SDS011;43379;48.160;14.036;2023-03-13T07:37:04;23.80;;;21.50;;
57551;SDS011;43379;48.160;14.036;2023-03-13T07:39:30;23.37;;;20.90;;
57551;SDS011;43379;48.160;14.036;2023-03-13T07:41:55;22.97;;;20.80;;
57551;SDS011;43379;48.160;14.036;2023-03-13T07:44:21;22.70;;;20.60;;
57551;SDS011;43379;48.160;14.036;2023-03-13T07:46:46;23.23;;;20.93;;
57551;SDS011;43379;48.160;14.036;2023-03-13T07:49:14;25.77;;;23.17;;
57551;SDS011;43379;48.160;14.036;2023-03-13T07:51:40;24.67;;;22.27;;
57551;SDS011;43379;48.160;14.036;2023-03-13T07:54:05;24.43;;;22.00;;
57551;SDS011;43379;48.160;14.036;2023-03-13T07:56:31;23.67;;;21.67;;
57551;SDS011;43379;48.160;14.036;2023-03-13T07:58:57;24.47;;;22.07;;
57551;SDS011;43379;48.160;14.036;2023-03-13T08:01:23;25.97;;;23.20;;
57551;SDS011;43379;48.160;14.036;2023-03-13T08:03:50;24.30;;;21.93;;
57551;SDS011;43379;48.160;14.036;2023-03-13T08:06:19;24.57;;;22.33;;
57551;SDS011;43379;48.160;14.036;2023-03-13T08:08:47;26.10;;;23.80;;
57551;SDS011;43379;48.160;14.036;2023-03-13T08:11:14;24.97;;;22.67;;
57551;SDS011;43379;48.160;14.036;2023-03-13T08:13:44;23.97;;;21.97;;
57551;SDS011;43379;48.160;14.036;2023-03-13T08:16:15;24.17;;;22.00;;
57551;SDS011;43379;48.160;14.036;2023-03-13T08:18:43;25.87;;;23.43;;
57551;SDS011;43379;48.160;14.036;2023-03-13T08:21:10;26.53;;;23.33;;
57551;SDS011;43379;48.160;14.036;2023-03-13T08:23:45;22.70;;;20.70;;
57551;SDS011;43379;48.160;14.036;2023-03-13T08:26:14;22.00;;;19.93;;
57551;SDS011;43379;48.160;14.036;2023-03-13T08:28:43;23.57;;;21.43;;
57551;SDS011;43379;48.160;14.036;2023-03-13T08:31:13;24.10;;;21.80;;
57551;SDS011;43379;48.160;14.036;2023-03-13T08:33:41;22.20;;;19.90;;
57551;SDS011;43379;48.160;14.036;2023-03-13T08:38:42;22.70;;;20.60;;
57551;SDS011;43379;48.160;14.036;2023-03-13T08:41:09;20.50;;;18.60;;
57551;SDS011;43379;48.160;14.036;2023-03-13T08:43:35;22.63;;;20.70;;
57551;SDS011;43379;48.160;14.036;2023-03-13T08:46:01;25.23;;;22.63;;
57551;SDS011;43379;48.160;14.036;2023-03-13T08:48:27;24.70;;;22.50;;
57551;SDS011;43379;48.160;14.036;2023-03-13T08:51:03;22.83;;;20.90;;
57551;SDS011;43379;48.160;14.036;2023-03-13T08:53:31;23.17;;;20.87;;
57551;SDS011;43379;48.160;14.036;2023-03-13T08:55:57;24.07;;;21.73;;
57551;SDS011;43379;48.160;14.036;2023-03-13T08:58:23;22.43;;;20.50;;
57551;SDS011;43379;48.160;14.036;2023-03-13T09:00:49;23.03;;;20.23;;
57551;SDS011;43379;48.160;14.036;2023-03-13T09:03:15;23.47;;;21.00;;
57551;SDS011;43379;48.160;14.036;2023-03-13T09:05:41;23.73;;;21.40;;
57551;SDS011;43379;48.160;14.036;2023-03-13T09:08:07;24.20;;;21.90;;
57551;SDS011;43379;48.160;14.036;2023-03-13T09:10:33;24.73;;;21.73;;
57551;SDS011;43379;48.160;14.036;2023-03-13T09:13:00;23.43;;;21.17;;
57551;SDS011;43379;48.160;14.036;2023-03-13T09:15:26;23.33;;;21.03;;
57551;SDS011;43379;48.160;14.036;2023-03-13T09:17:52;22.53;;;20.33;;
57551;SDS011;43379;48.160;14.036;2023-03-13T09:20:18;25.30;;;22.77;;
57551;SDS011;43379;48.160;14.036;2023-03-13T09:22:44;22.83;;;20.83;;
57551;SDS011;43379;48.160;14.036;2023-03-13T09:25:10;23.70;;;21.27;;
57551;SDS011;43379;48.160;14.036;2023-03-13T09:27:36;24.60;;;21.70;;
57551;SDS011;43379;48.160;14.036;2023-03-13T09:30:02;25.07;;;22.47;;
57551;SDS011;43379;48.160;14.036;2023-03-13T09:32:28;24.33;;;22.07;;
57551;SDS011;43379;48.160;14.036;2023-03-13T09:34:54;23.03;;;20.90;;
57551;SDS011;43379;48.160;14.036;2023-03-13T09:37:20;24.40;;;20.63;;
57551;SDS011;43379;48.160;14.036;2023-03-13T09:39:47;23.33;;;21.23;;
57551;SDS011;43379;48.160;14.036;2023-03-13T09:42:17;21.13;;;18.90;;
57551;SDS011;43379;48.160;14.036;2023-03-13T09:44:50;21.23;;;18.90;;
57551;SDS011;43379;48.160;14.036;2023-03-13T09:47:29;21.23;;;19.37;;
57551;SDS011;43379;48.160;14.036;2023-03-13T09:50:19;19.77;;;17.77;;
57551;SDS011;43379;48.160;14.036;2023-03-13T09:53:40;21.20;;;19.20;;
57551;SDS011;43379;48.160;14.036;2023-03-13T09:56:11;25.20;;;19.00;;
57551;SDS011;43379;48.160;14.036;2023-03-13T09:58:40;19.83;;;18.03;;
57551;SDS011;43379;48.160;14.036;2023-03-13T10:01:14;22.83;;;20.63;;
57551;SDS011;43379;48.160;14.036;2023-03-13T10:04:20;21.93;;;19.50;;
57551;SDS011;43379;48.160;14.036;2023-03-13T10:06:50;25.30;;;18.23;;
57551;SDS011;43379;48.160;14.036;2023-03-13T10:09:17;21.83;;;19.53;;
57551;SDS011;43379;48.160;14.036;2023-03-13T10:15:49;19.13;;;17.40;;
57551;SDS011;43379;48.160;14.036;2023-03-13T10:17:47;20.30;;;17.67;;
57551;SDS011;43379;48.160;14.036;2023-03-13T10:22:50;17.87;;;16.27;;
57551;SDS011;43379;48.160;14.036;2023-03-13T10:25:32;19.17;;;17.17;;
57551;SDS011;43379;48.160;14.036;2023-03-13T10:28:00;18.57;;;16.70;;
57551;SDS011;43379;48.160;14.036;2023-03-13T10:32:58;20.93;;;18.77;;
57551;SDS011;43379;48.160;14.036;2023-03-13T10:35:44;18.93;;;16.83;;
57551;SDS011;43379;48.160;14.036;2023-03-13T10:40:37;17.73;;;16.17;;
57551;SDS011;43379;48.160;14.036;2023-03-13T10:43:04;16.97;;;15.33;;
57551;SDS011;43379;48.160;14.036;2023-03-13T10:45:42;16.60;;;15.20;;
57551;SDS011;43379;48.160;14.036;2023-03-13T10:48:12;16.63;;;14.93;;
57551;SDS011;43379;48.160;14.036;2023-03-13T10:50:44;17.90;;;15.20;;
57551;SDS011;43379;48.160;14.036;2023-03-13T10:53:18;18.03;;;16.33;;
57551;SDS011;43379;48.160;14.036;2023-03-13T10:55:44;16.13;;;14.57;;
57551;SDS011;43379;48.160;14.036;2023-03-13T10:58:16;17.70;;;15.83;;
57551;SDS011;43379;48.160;14.036;2023-03-13T11:00:46;17.77;;;15.23;;
57551;SDS011;43379;48.160;14.036;2023-03-13T11:03:22;19.50;;;17.50;;
57551;SDS011;43379;48.160;14.036;2023-03-13T11:05:55;17.70;;;15.80;;
57551;SDS011;43379;48.160;14.036;2023-03-13T11:08:26;17.83;;;16.27;;
57551;SDS011;43379;48.160;14.036;2023-03-13T11:11:02;18.30;;;14.97;;
57551;SDS011;43379;48.160;14.036;2023-03-13T11:13:42;17.77;;;15.93;;
57551;SDS011;43379;48.160;14.036;2023-03-13T11:24:21;16.60;;;14.97;;
57551;SDS011;43379;48.160;14.036;2023-03-13T11:32:21;17.30;;;15.77;;
57551;SDS011;43379;48.160;14.036;2023-03-13T11:34:57;14.90;;;13.50;;
57551;SDS011;43379;48.160;14.036;2023-03-13T11:37:24;15.70;;;13.20;;
57551;SDS011;43379;48.160;14.036;2023-03-13T12:01:23;15.87;;;14.27;;
57551;SDS011;43379;48.160;14.036;2023-03-13T12:03:58;15.73;;;14.07;;
57551;SDS011;43379;48.160;14.036;2023-03-13T12:06:44;16.63;;;15.20;;
57551;SDS011;43379;48.160;14.036;2023-03-13T12:14:36;17.23;;;15.73;;
57551;SDS011;43379;48.160;14.036;2023-03-13T12:17:21;16.43;;;14.70;;
57551;SDS011;43379;48.160;14.036;2023-03-13T12:20:09;17.30;;;15.20;;
57551;SDS011;43379;48.160;14.036;2023-03-13T12:22:50;15.40;;;14.10;;
57551;SDS011;43379;48.160;14.036;2023-03-13T12:25:18;15.20;;;13.80;;
57551;SDS011;43379;48.160;14.036;2023-03-13T12:27:51;13.73;;;12.43;;
57551;SDS011;43379;48.160;14.036;2023-03-13T12:30:39;14.90;;;13.50;;
57551;SDS011;43379;48.160;14.036;2023-03-13T12:33:15;14.60;;;13.13;;
57551;SDS011;43379;48.160;14.036;2023-03-13T12:35:51;13.60;;;12.30;;
57551;SDS011;43379;48.160;14.036;2023-03-13T12:38:39;14.17;;;12.60;;
57551;SDS011;43379;48.160;14.036;2023-03-13T12:41:16;13.63;;;12.33;;
57551;SDS011;43379;48.160;14.036;2023-03-13T12:43:48;14.73;;;13.20;;
57551;SDS011;43379;48.160;14.036;2023-03-13T12:46:35;17.53;;;13.07;;
57551;SDS011;43379;48.160;14.036;2023-03-13T13:00:21;13.87;;;12.63;;
57551;SDS011;43379;48.160;14.036;2023-03-13T13:05:56;14.33;;;13.00;;
57551;SDS011;43379;48.160;14.036;2023-03-13T13:08:26;13.40;;;12.00;;
57551;SDS011;43379;48.160;14.036;2023-03-13T13:11:30;12.67;;;11.57;;
57551;SDS011;43379;48.160;14.036;2023-03-13T13:14:05;14.70;;;12.73;;
57551;SDS011;43379;48.160;14.036;2023-03-13T13:16:48;14.27;;;12.80;;
57551;SDS011;43379;48.160;14.036;2023-03-13T13:19:42;15.57;;;12.10;;
57551;SDS011;43379;48.160;14.036;2023-03-13T13:27:51;15.73;;;12.57;;
57551;SDS011;43379;48.160;14.036;2023-03-13T13:32:49;13.47;;;12.20;;
57551;SDS011;43379;48.160;14.036;2023-03-13T13:35:19;12.60;;;11.37;;
57551;SDS011;43379;48.160;14.036;2023-03-13T13:37:45;12.57;;;11.27;;
57551;SDS011;43379;48.160;14.036;2023-03-13T13:42:46;11.00;;;9.97;;
57551;SDS011;43379;48.160;14.036;2023-03-13T13:47:43;9.37;;;8.67;;
57551;SDS011;43379;48.160;14.036;2023-03-13T13:50:17;13.10;;;11.03;;
57551;SDS011;43379;48.160;14.036;2023-03-13T13:52:48;14.63;;;11.00;;
57551;SDS011;43379;48.160;14.036;2023-03-13T13:58:03;12.57;;;11.37;;
57551;SDS011;43379;48.160;14.036;2023-03-13T14:00:39;11.50;;;10.60;;
57551;SDS011;43379;48.160;14.036;2023-03-13T14:03:15;12.30;;;11.27;;
57551;SDS011;43379;48.160;14.036;2023-03-13T14:05:46;12.57;;;11.33;;
57551;SDS011;43379;48.160;14.036;2023-03-13T14:08:24;11.50;;;10.60;;
57551;SDS011;43379;48.160;14.036;2023-03-13T14:16:35;13.90;;;11.63;;
57551;SDS011;43379;48.160;14.036;2023-03-13T14:19:02;12.33;;;11.13;;
57551;SDS011;43379;48.160;14.036;2023-03-13T14:21:27;12.57;;;11.30;;
57551;SDS011;43379;48.160;14.036;2023-03-13T14:23:54;12.90;;;10.23;;
57551;SDS011;43379;48.160;14.036;2023-03-13T14:26:27;13.20;;;11.30;;
57551;SDS011;43379;48.160;14.036;2023-03-13T14:28:54;15.60;;;9.37;;
57551;SDS011;43379;48.160;14.036;2023-03-13T14:31:28;14.53;;;8.40;;
57551;SDS011;43379;48.160;14.036;2023-03-13T14:34:02;10.00;;;7.80;;
57551;SDS011;43379;48.160;14.036;2023-03-13T14:36:30;8.87;;;7.20;;
57551;SDS011;43379;48.160;14.036;2023-03-13T14:41:54;7.23;;;6.53;;
57551;SDS011;43379;48.160;14.036;2023-03-13T14:44:31;8.80;;;6.50;;
57551;SDS011;43379;48.160;14.036;2023-03-13T14:47:07;7.70;;;6.70;;
57551;SDS011;43379;48.160;14.036;2023-03-13T14:49:45;10.87;;;7.27;;
57551;SDS011;43379;48.160;14.036;2023-03-13T14:52:22;9.03;;;5.80;;
57551;SDS011;43379;48.160;14.036;2023-03-13T14:54:52;7.67;;;6.90;;
57551;SDS011;43379;48.160;14.036;2023-03-13T14:57:54;7.57;;;6.00;;
57551;SDS011;43379;48.160;14.036;2023-03-13T15:06:02;6.53;;;5.53;;
57551;SDS011;43379;48.160;14.036;2023-03-13T15:08:34;6.40;;;5.90;;
57551;SDS011;43379;48.160;14.036;2023-03-13T15:11:01;10.07;;;7.60;;
57551;SDS011;43379;48.160;14.036;2023-03-13T15:13:36;8.23;;;7.47;;
57551;SDS011;43379;48.160;14.036;2023-03-13T15:16:02;7.63;;;6.83;;
57551;SDS011;43379;48.160;14.036;2023-03-13T15:18:39;7.30;;;6.60;;
57551;SDS011;43379;48.160;14.036;2023-03-13T15:23:47;7.33;;;6.43;;
57551;SDS011;43379;48.160;14.036;2023-03-13T15:26:15;9.63;;;6.80;;
57551;SDS011;43379;48.160;14.036;2023-03-13T15:28:41;14.27;;;7.23;;
57551;SDS011;43379;48.160;14.036;2023-03-13T15:31:08;8.60;;;5.60;;
57551;SDS011;43379;48.160;14.036;2023-03-13T15:33:35;13.43;;;6.00;;
57551;SDS011;43379;48.160;14.036;2023-03-13T15:36:01;6.83;;;6.13;;
57551;SDS011;43379;48.160;14.036;2023-03-13T15:38:27;9.30;;;6.30;;
57551;SDS011;43379;48.160;14.036;2023-03-13T15:40:53;7.30;;;5.53;;
57551;SDS011;43379;48.160;14.036;2023-03-13T15:43:19;9.70;;;5.80;;
57551;SDS011;43379;48.160;14.036;2023-03-13T15:45:47;6.73;;;5.20;;
57551;SDS011;43379;48.160;14.036;2023-03-13T15:48:17;8.80;;;5.80;;
57551;SDS011;43379;48.160;14.036;2023-03-13T15:50:52;9.60;;;6.40;;
57551;SDS011;43379;48.160;14.036;2023-03-13T15:53:32;9.47;;;7.70;;
57551;SDS011;43379;48.160;14.036;2023-03-13T15:56:02;9.23;;;6.23;;
57551;SDS011;43379;48.160;14.036;2023-03-13T15:58:41;7.07;;;6.37;;
57551;SDS011;43379;48.160;14.036;2023-03-13T16:01:09;9.17;;;7.50;;
57551;SDS011;43379;48.160;14.036;2023-03-13T16:03:37;8.17;;;7.30;;
57551;SDS011;43379;48.160;14.036;2023-03-13T16:06:08;8.00;;;6.70;;
57551;SDS011;43379;48.160;14.036;2023-03-13T16:08:44;7.77;;;5.90;;
57551;SDS011;43379;48.160;14.036;2023-03-13T16:11:14;6.30;;;5.70;;
57551;SDS011;43379;48.160;14.036;2023-03-13T16:13:41;10.97;;;6.23;;
57551;SDS011;43379;48.160;14.036;2023-03-13T16:16:17;11.20;;;6.40;;
57551;SDS011;43379;48.160;14.036;2023-03-13T16:18:49;10.67;;;7.10;;